sensor_id;sensor_type;location;lat;lon;timestamp;temperature;humidity
38941;DHT22;43236;47.208;7.518;2022-11-20T00:00:45;9.10;94.00
38941;DHT22;43236;47.208;7.518;2022-11-20T00:03:32;9.20;94.20
38941;DHT22;43236;47.208;7.518;2022-11-20T00:06:20;9.20;94.10
38941;DHT22;43236;47.208;7.518;2022-11-20T00:09:10;9.30;94.20
38941;DHT22;43236;47.208;7.518;2022-11-20T00:11:58;9.30;94.00
38941;DHT22;43236;47.208;7.518;2022-11-20T00:14:45;9.30;93.80
38941;DHT22;43236;47.208;7.518;2022-11-20T00:17:32;9.30;93.80
38941;DHT22;43236;47.208;7.518;2022-11-20T00:20:19;9.30;93.80
38941;DHT22;43236;47.208;7.518;2022-11-20T00:23:06;9.20;93.60
38941;DHT22;43236;47.208;7.518;2022-11-20T00:25:53;9.20;93.70
38941;DHT22;43236;47.208;7.518;2022-11-20T00:28:42;9.20;93.90
38941;DHT22;43236;47.208;7.518;2022-11-20T00:31:30;9.20;93.80
38941;DHT22;43236;47.208;7.518;2022-11-20T00:34:18;9.20;93.80
38941;DHT22;43236;47.208;7.518;2022-11-20T00:37:08;9.10;93.90
38941;DHT22;43236;47.208;7.518;2022-11-20T00:39:55;9.20;94.10
38941;DHT22;43236;47.208;7.518;2022-11-20T00:42:42;9.20;94.30
38941;DHT22;43236;47.208;7.518;2022-11-20T00:45:31;9.20;94.40
38941;DHT22;43236;47.208;7.518;2022-11-20T00:48:18;9.20;94.30
38941;DHT22;43236;47.208;7.518;2022-11-20T00:51:05;9.20;94.40
38941;DHT22;43236;47.208;7.518;2022-11-20T00:53:55;9.30;94.50
38941;DHT22;43236;47.208;7.518;2022-11-20T00:56:42;9.30;94.40
38941;DHT22;43236;47.208;7.518;2022-11-20T00:59:29;9.30;94.60
38941;DHT22;43236;47.208;7.518;2022-11-20T01:02:17;9.40;94.70
38941;DHT22;43236;47.208;7.518;2022-11-20T01:05:04;9.40;94.70
38941;DHT22;43236;47.208;7.518;2022-11-20T01:07:51;9.50;94.80
38941;DHT22;43236;47.208;7.518;2022-11-20T01:10:41;9.50;94.90
38941;DHT22;43236;47.208;7.518;2022-11-20T01:13:29;9.50;94.60
38941;DHT22;43236;47.208;7.518;2022-11-20T01:16:28;9.50;94.60
38941;DHT22;43236;47.208;7.518;2022-11-20T01:19:19;9.60;94.70
38941;DHT22;43236;47.208;7.518;2022-11-20T01:22:06;9.60;94.80
38941;DHT22;43236;47.208;7.518;2022-11-20T01:24:53;9.60;94.70
38941;DHT22;43236;47.208;7.518;2022-11-20T01:27:40;9.60;94.90
38941;DHT22;43236;47.208;7.518;2022-11-20T01:30:28;9.60;94.90
38941;DHT22;43236;47.208;7.518;2022-11-20T01:33:15;9.60;94.90
38941;DHT22;43236;47.208;7.518;2022-11-20T01:36:07;9.70;95.00
38941;DHT22;43236;47.208;7.518;2022-11-20T01:38:56;9.70;94.90
38941;DHT22;43236;47.208;7.518;2022-11-20T01:41:44;9.70;94.90
38941;DHT22;43236;47.208;7.518;2022-11-20T01:44:52;9.60;94.70
38941;DHT22;43236;47.208;7.518;2022-11-20T01:47:43;9.70;94.90
38941;DHT22;43236;47.208;7.518;2022-11-20T01:50:32;9.60;94.80
38941;DHT22;43236;47.208;7.518;2022-11-20T01:53:23;9.60;94.80
38941;DHT22;43236;47.208;7.518;2022-11-20T01:56:12;9.60;94.70
38941;DHT22;43236;47.208;7.518;2022-11-20T01:59:02;9.60;94.70
38941;DHT22;43236;47.208;7.518;2022-11-20T02:01:51;9.60;94.80
38941;DHT22;43236;47.208;7.518;2022-11-20T02:04:38;9.60;94.80
38941;DHT22;43236;47.208;7.518;2022-11-20T02:07:26;9.60;94.90
38941;DHT22;43236;47.208;7.518;2022-11-20T02:10:16;9.60;94.70
38941;DHT22;43236;47.208;7.518;2022-11-20T02:13:03;9.60;94.90
38941;DHT22;43236;47.208;7.518;2022-11-20T02:16:11;9.60;94.90
38941;DHT22;43236;47.208;7.518;2022-11-20T02:19:02;9.60;94.70
38941;DHT22;43236;47.208;7.518;2022-11-20T02:21:58;9.60;94.90
38941;DHT22;43236;47.208;7.518;2022-11-20T02:24:49;9.60;94.80
38941;DHT22;43236;47.208;7.518;2022-11-20T02:27:37;9.60;95.00
38941;DHT22;43236;47.208;7.518;2022-11-20T02:30:24;9.60;94.90
38941;DHT22;43236;47.208;7.518;2022-11-20T02:33:12;9.60;94.90
38941;DHT22;43236;47.208;7.518;2022-11-20T02:35:59;9.60;95.00
38941;DHT22;43236;47.208;7.518;2022-11-20T02:38:46;9.60;95.00
38941;DHT22;43236;47.208;7.518;2022-11-20T02:41:37;9.60;94.90
38941;DHT22;43236;47.208;7.518;2022-11-20T02:44:24;9.60;94.80
38941;DHT22;43236;47.208;7.518;2022-11-20T02:47:11;9.50;94.90
38941;DHT22;43236;47.208;7.518;2022-11-20T02:49:58;9.50;94.80
38941;DHT22;43236;47.208;7.518;2022-11-20T02:52:45;9.50;95.00
38941;DHT22;43236;47.208;7.518;2022-11-20T02:55:32;9.60;95.10
38941;DHT22;43236;47.208;7.518;2022-11-20T02:58:21;9.60;95.30
38941;DHT22;43236;47.208;7.518;2022-11-20T03:01:08;9.60;95.10
38941;DHT22;43236;47.208;7.518;2022-11-20T03:03:55;9.60;94.90
38941;DHT22;43236;47.208;7.518;2022-11-20T03:06:42;9.60;94.80
38941;DHT22;43236;47.208;7.518;2022-11-20T03:09:29;9.60;94.70
38941;DHT22;43236;47.208;7.518;2022-11-20T03:12:16;9.60;94.80
38941;DHT22;43236;47.208;7.518;2022-11-20T03:15:05;9.60;94.90
38941;DHT22;43236;47.208;7.518;2022-11-20T03:17:53;9.60;95.10
38941;DHT22;43236;47.208;7.518;2022-11-20T03:20:41;9.60;95.10
38941;DHT22;43236;47.208;7.518;2022-11-20T03:23:29;9.70;95.20
38941;DHT22;43236;47.208;7.518;2022-11-20T03:26:18;9.70;95.40
38941;DHT22;43236;47.208;7.518;2022-11-20T03:29:06;9.70;95.00
38941;DHT22;43236;47.208;7.518;2022-11-20T03:31:54;9.70;95.10
38941;DHT22;43236;47.208;7.518;2022-11-20T03:34:41;9.70;94.90
38941;DHT22;43236;47.208;7.518;2022-11-20T03:37:28;9.70;95.10
38941;DHT22;43236;47.208;7.518;2022-11-20T03:40:15;9.70;95.30
38941;DHT22;43236;47.208;7.518;2022-11-20T03:43:03;9.70;95.10
38941;DHT22;43236;47.208;7.518;2022-11-20T03:45:50;9.70;95.30
38941;DHT22;43236;47.208;7.518;2022-11-20T03:48:38;9.70;95.30
38941;DHT22;43236;47.208;7.518;2022-11-20T03:51:26;9.70;95.20
38941;DHT22;43236;47.208;7.518;2022-11-20T03:54:13;9.70;95.30
38941;DHT22;43236;47.208;7.518;2022-11-20T03:57:00;9.70;95.30
38941;DHT22;43236;47.208;7.518;2022-11-20T03:59:48;9.70;95.50
38941;DHT22;43236;47.208;7.518;2022-11-20T04:02:35;9.70;95.30
38941;DHT22;43236;47.208;7.518;2022-11-20T04:05:23;9.70;95.40
38941;DHT22;43236;47.208;7.518;2022-11-20T04:08:10;9.70;95.50
38941;DHT22;43236;47.208;7.518;2022-11-20T04:11:08;9.60;95.40
38941;DHT22;43236;47.208;7.518;2022-11-20T04:13:57;9.60;95.50
38941;DHT22;43236;47.208;7.518;2022-11-20T04:16:44;9.60;95.50
38941;DHT22;43236;47.208;7.518;2022-11-20T04:19:31;9.60;95.40
38941;DHT22;43236;47.208;7.518;2022-11-20T04:22:19;9.60;95.30
38941;DHT22;43236;47.208;7.518;2022-11-20T04:25:07;9.60;95.30
38941;DHT22;43236;47.208;7.518;2022-11-20T04:27:54;9.60;95.40
38941;DHT22;43236;47.208;7.518;2022-11-20T04:30:42;9.60;95.30
38941;DHT22;43236;47.208;7.518;2022-11-20T04:33:29;9.60;95.40
38941;DHT22;43236;47.208;7.518;2022-11-20T04:36:18;9.60;95.60
38941;DHT22;43236;47.208;7.518;2022-11-20T04:39:11;9.60;95.70
38941;DHT22;43236;47.208;7.518;2022-11-20T04:41:58;9.60;95.70
38941;DHT22;43236;47.208;7.518;2022-11-20T04:44:59;9.70;95.80
38941;DHT22;43236;47.208;7.518;2022-11-20T04:47:48;9.70;95.80
38941;DHT22;43236;47.208;7.518;2022-11-20T04:50:39;9.70;95.70
38941;DHT22;43236;47.208;7.518;2022-11-20T04:53:26;9.70;95.80
38941;DHT22;43236;47.208;7.518;2022-11-20T04:56:15;9.70;95.70
38941;DHT22;43236;47.208;7.518;2022-11-20T04:59:02;9.70;95.70
38941;DHT22;43236;47.208;7.518;2022-11-20T05:01:50;9.70;95.60
38941;DHT22;43236;47.208;7.518;2022-11-20T05:04:37;9.70;95.80
38941;DHT22;43236;47.208;7.518;2022-11-20T05:07:24;9.70;96.00
38941;DHT22;43236;47.208;7.518;2022-11-20T05:10:11;9.70;95.80
38941;DHT22;43236;47.208;7.518;2022-11-20T05:12:59;9.70;95.60
38941;DHT22;43236;47.208;7.518;2022-11-20T05:15:46;9.70;95.60
38941;DHT22;43236;47.208;7.518;2022-11-20T05:18:33;9.70;95.90
38941;DHT22;43236;47.208;7.518;2022-11-20T05:21:21;9.70;96.00
38941;DHT22;43236;47.208;7.518;2022-11-20T05:24:08;9.80;95.90
38941;DHT22;43236;47.208;7.518;2022-11-20T05:26:56;9.80;95.90
38941;DHT22;43236;47.208;7.518;2022-11-20T05:29:44;9.80;96.10
38941;DHT22;43236;47.208;7.518;2022-11-20T05:32:31;9.80;96.10
38941;DHT22;43236;47.208;7.518;2022-11-20T05:35:18;9.80;96.00
38941;DHT22;43236;47.208;7.518;2022-11-20T05:38:05;9.80;96.10
38941;DHT22;43236;47.208;7.518;2022-11-20T05:40:52;9.80;96.20
38941;DHT22;43236;47.208;7.518;2022-11-20T05:43:41;9.80;96.10
38941;DHT22;43236;47.208;7.518;2022-11-20T05:46:29;9.80;96.10
38941;DHT22;43236;47.208;7.518;2022-11-20T05:49:16;9.80;96.20
38941;DHT22;43236;47.208;7.518;2022-11-20T05:52:03;9.80;96.30
38941;DHT22;43236;47.208;7.518;2022-11-20T05:54:50;9.80;96.20
38941;DHT22;43236;47.208;7.518;2022-11-20T05:57:38;9.80;96.10
38941;DHT22;43236;47.208;7.518;2022-11-20T06:00:25;9.90;96.30
38941;DHT22;43236;47.208;7.518;2022-11-20T06:03:13;9.80;96.10
38941;DHT22;43236;47.208;7.518;2022-11-20T06:06:00;9.80;96.10
38941;DHT22;43236;47.208;7.518;2022-11-20T06:08:48;9.80;96.20
38941;DHT22;43236;47.208;7.518;2022-11-20T06:11:35;9.80;96.10
38941;DHT22;43236;47.208;7.518;2022-11-20T06:14:22;9.80;96.00
38941;DHT22;43236;47.208;7.518;2022-11-20T06:17:09;9.80;96.30
38941;DHT22;43236;47.208;7.518;2022-11-20T06:19:57;9.80;96.20
38941;DHT22;43236;47.208;7.518;2022-11-20T06:22:44;9.80;96.40
38941;DHT22;43236;47.208;7.518;2022-11-20T06:25:31;9.80;96.60
38941;DHT22;43236;47.208;7.518;2022-11-20T06:28:18;9.80;96.30
38941;DHT22;43236;47.208;7.518;2022-11-20T06:31:07;9.80;96.30
38941;DHT22;43236;47.208;7.518;2022-11-20T06:33:54;9.80;96.30
38941;DHT22;43236;47.208;7.518;2022-11-20T06:36:43;9.80;96.40
38941;DHT22;43236;47.208;7.518;2022-11-20T06:39:30;9.80;96.30
38941;DHT22;43236;47.208;7.518;2022-11-20T06:42:17;9.70;96.20
38941;DHT22;43236;47.208;7.518;2022-11-20T06:45:04;9.70;96.40
38941;DHT22;43236;47.208;7.518;2022-11-20T06:47:53;9.70;96.70
38941;DHT22;43236;47.208;7.518;2022-11-20T06:50:40;9.70;96.70
38941;DHT22;43236;47.208;7.518;2022-11-20T06:53:28;9.70;96.50
38941;DHT22;43236;47.208;7.518;2022-11-20T06:56:15;9.80;96.60
38941;DHT22;43236;47.208;7.518;2022-11-20T06:59:04;9.80;96.80
38941;DHT22;43236;47.208;7.518;2022-11-20T07:01:51;9.80;96.60
38941;DHT22;43236;47.208;7.518;2022-11-20T07:04:38;9.70;96.40
38941;DHT22;43236;47.208;7.518;2022-11-20T07:07:26;9.70;96.40
38941;DHT22;43236;47.208;7.518;2022-11-20T07:10:14;9.70;96.40
38941;DHT22;43236;47.208;7.518;2022-11-20T07:13:01;11.00;96.80
38941;DHT22;43236;47.208;7.518;2022-11-20T07:15:48;9.80;96.90
38941;DHT22;43236;47.208;7.518;2022-11-20T07:18:36;9.70;96.80
38941;DHT22;43236;47.208;7.518;2022-11-20T07:21:23;9.80;96.90
38941;DHT22;43236;47.208;7.518;2022-11-20T07:24:10;9.80;96.80
38941;DHT22;43236;47.208;7.518;2022-11-20T07:26:58;9.80;96.70
38941;DHT22;43236;47.208;7.518;2022-11-20T07:29:45;9.80;96.60
38941;DHT22;43236;47.208;7.518;2022-11-20T07:32:32;9.80;96.40
38941;DHT22;43236;47.208;7.518;2022-11-20T07:35:19;9.80;96.60
38941;DHT22;43236;47.208;7.518;2022-11-20T07:38:06;9.80;96.80
38941;DHT22;43236;47.208;7.518;2022-11-20T07:40:54;9.90;96.70
38941;DHT22;43236;47.208;7.518;2022-11-20T07:43:43;9.90;96.60
38941;DHT22;43236;47.208;7.518;2022-11-20T07:46:30;9.90;96.40
38941;DHT22;43236;47.208;7.518;2022-11-20T07:49:17;10.00;96.00
38941;DHT22;43236;47.208;7.518;2022-11-20T07:52:04;10.00;95.70
38941;DHT22;43236;47.208;7.518;2022-11-20T07:54:51;10.00;95.30
38941;DHT22;43236;47.208;7.518;2022-11-20T07:57:38;10.00;95.60
38941;DHT22;43236;47.208;7.518;2022-11-20T08:00:27;10.10;95.60
38941;DHT22;43236;47.208;7.518;2022-11-20T08:03:14;10.10;95.80
38941;DHT22;43236;47.208;7.518;2022-11-20T08:06:01;10.10;95.60
38941;DHT22;43236;47.208;7.518;2022-11-20T08:08:48;10.10;95.50
38941;DHT22;43236;47.208;7.518;2022-11-20T08:11:35;10.10;95.10
38941;DHT22;43236;47.208;7.518;2022-11-20T08:14:40;10.10;95.50
38941;DHT22;43236;47.208;7.518;2022-11-20T08:17:28;10.20;95.50
38941;DHT22;43236;47.208;7.518;2022-11-20T08:20:15;10.10;95.30
38941;DHT22;43236;47.208;7.518;2022-11-20T08:23:04;10.10;95.50
38941;DHT22;43236;47.208;7.518;2022-11-20T08:25:52;10.20;95.80
38941;DHT22;43236;47.208;7.518;2022-11-20T08:28:39;10.20;96.00
38941;DHT22;43236;47.208;7.518;2022-11-20T08:31:26;10.30;96.00
38941;DHT22;43236;47.208;7.518;2022-11-20T08:34:15;10.30;96.00
38941;DHT22;43236;47.208;7.518;2022-11-20T08:37:03;10.40;95.80
38941;DHT22;43236;47.208;7.518;2022-11-20T08:39:50;10.40;95.40
38941;DHT22;43236;47.208;7.518;2022-11-20T08:42:46;10.40;94.60
38941;DHT22;43236;47.208;7.518;2022-11-20T08:45:33;10.40;95.10
38941;DHT22;43236;47.208;7.518;2022-11-20T08:48:20;10.40;95.20
38941;DHT22;43236;47.208;7.518;2022-11-20T08:51:09;10.40;95.20
38941;DHT22;43236;47.208;7.518;2022-11-20T08:53:56;10.40;95.00
38941;DHT22;43236;47.208;7.518;2022-11-20T08:56:43;10.40;94.70
38941;DHT22;43236;47.208;7.518;2022-11-20T08:59:30;10.40;94.60
38941;DHT22;43236;47.208;7.518;2022-11-20T09:02:17;10.40;94.40
38941;DHT22;43236;47.208;7.518;2022-11-20T09:05:05;10.40;94.40
38941;DHT22;43236;47.208;7.518;2022-11-20T09:07:55;10.40;94.00
38941;DHT22;43236;47.208;7.518;2022-11-20T09:10:43;10.30;93.90
38941;DHT22;43236;47.208;7.518;2022-11-20T09:13:30;10.30;94.10
38941;DHT22;43236;47.208;7.518;2022-11-20T09:16:18;10.40;93.80
38941;DHT22;43236;47.208;7.518;2022-11-20T09:19:05;10.30;94.10
38941;DHT22;43236;47.208;7.518;2022-11-20T09:21:52;10.30;93.90
38941;DHT22;43236;47.208;7.518;2022-11-20T09:24:40;10.30;94.00
38941;DHT22;43236;47.208;7.518;2022-11-20T09:27:28;10.30;94.50
38941;DHT22;43236;47.208;7.518;2022-11-20T09:30:15;10.30;94.20
38941;DHT22;43236;47.208;7.518;2022-11-20T09:33:04;10.20;94.50
38941;DHT22;43236;47.208;7.518;2022-11-20T09:35:51;10.20;93.50
38941;DHT22;43236;47.208;7.518;2022-11-20T09:38:38;10.30;94.10
38941;DHT22;43236;47.208;7.518;2022-11-20T09:41:49;10.30;93.60
38941;DHT22;43236;47.208;7.518;2022-11-20T09:44:51;10.40;93.80
38941;DHT22;43236;47.208;7.518;2022-11-20T09:47:53;10.40;93.70
38941;DHT22;43236;47.208;7.518;2022-11-20T09:50:49;10.40;93.00
38941;DHT22;43236;47.208;7.518;2022-11-20T09:53:49;10.50;93.30
38941;DHT22;43236;47.208;7.518;2022-11-20T09:56:40;10.60;93.10
38941;DHT22;43236;47.208;7.518;2022-11-20T09:59:36;10.70;93.20
38941;DHT22;43236;47.208;7.518;2022-11-20T10:02:29;10.90;93.20
38941;DHT22;43236;47.208;7.518;2022-11-20T10:05:19;11.00;93.10
38941;DHT22;43236;47.208;7.518;2022-11-20T10:08:13;11.10;92.70
38941;DHT22;43236;47.208;7.518;2022-11-20T10:11:04;11.10;92.70
38941;DHT22;43236;47.208;7.518;2022-11-20T10:13:59;11.10;92.20
38941;DHT22;43236;47.208;7.518;2022-11-20T10:17:00;11.00;91.70
38941;DHT22;43236;47.208;7.518;2022-11-20T10:20:01;11.10;92.30
38941;DHT22;43236;47.208;7.518;2022-11-20T10:23:02;11.20;92.20
38941;DHT22;43236;47.208;7.518;2022-11-20T10:25:58;11.30;91.40
38941;DHT22;43236;47.208;7.518;2022-11-20T10:28:57;11.40;91.70
38941;DHT22;43236;47.208;7.518;2022-11-20T10:31:47;11.50;91.10
38941;DHT22;43236;47.208;7.518;2022-11-20T10:34:44;11.50;91.00
38941;DHT22;43236;47.208;7.518;2022-11-20T10:37:34;11.50;91.20
38941;DHT22;43236;47.208;7.518;2022-11-20T10:40:29;11.50;90.30
38941;DHT22;43236;47.208;7.518;2022-11-20T10:43:29;11.50;90.30
38941;DHT22;43236;47.208;7.518;2022-11-20T10:46:20;11.40;90.50
38941;DHT22;43236;47.208;7.518;2022-11-20T10:49:14;11.40;91.10
38941;DHT22;43236;47.208;7.518;2022-11-20T10:52:09;11.40;91.30
38941;DHT22;43236;47.208;7.518;2022-11-20T10:55:05;11.30;91.30
38941;DHT22;43236;47.208;7.518;2022-11-20T10:58:00;11.30;91.20
38941;DHT22;43236;47.208;7.518;2022-11-20T11:00:48;11.20;91.40
38941;DHT22;43236;47.208;7.518;2022-11-20T11:03:35;11.20;91.50
38941;DHT22;43236;47.208;7.518;2022-11-20T11:06:29;11.20;91.70
38941;DHT22;43236;47.208;7.518;2022-11-20T11:09:31;11.20;91.00
38941;DHT22;43236;47.208;7.518;2022-11-20T11:12:20;11.20;91.10
38941;DHT22;43236;47.208;7.518;2022-11-20T11:15:13;11.20;91.00
38941;DHT22;43236;47.208;7.518;2022-11-20T11:18:01;11.30;91.30
38941;DHT22;43236;47.208;7.518;2022-11-20T11:20:50;11.30;91.20
38941;DHT22;43236;47.208;7.518;2022-11-20T11:23:39;11.30;91.20
38941;DHT22;43236;47.208;7.518;2022-11-20T11:26:28;11.40;90.70
38941;DHT22;43236;47.208;7.518;2022-11-20T11:29:17;11.40;90.40
38941;DHT22;43236;47.208;7.518;2022-11-20T11:32:06;11.40;90.60
38941;DHT22;43236;47.208;7.518;2022-11-20T11:35:00;11.40;90.30
38941;DHT22;43236;47.208;7.518;2022-11-20T11:37:48;11.40;90.20
38941;DHT22;43236;47.208;7.518;2022-11-20T11:40:36;11.40;90.50
38941;DHT22;43236;47.208;7.518;2022-11-20T11:43:28;11.40;90.40
38941;DHT22;43236;47.208;7.518;2022-11-20T11:46:35;11.40;90.60
38941;DHT22;43236;47.208;7.518;2022-11-20T11:49:23;11.50;90.50
38941;DHT22;43236;47.208;7.518;2022-11-20T11:52:13;11.50;90.30
38941;DHT22;43236;47.208;7.518;2022-11-20T11:55:04;11.60;90.50
38941;DHT22;43236;47.208;7.518;2022-11-20T11:58:09;11.70;90.20
38941;DHT22;43236;47.208;7.518;2022-11-20T12:01:03;11.90;90.00
38941;DHT22;43236;47.208;7.518;2022-11-20T12:03:52;12.00;88.20
38941;DHT22;43236;47.208;7.518;2022-11-20T12:06:44;12.10;87.20
38941;DHT22;43236;47.208;7.518;2022-11-20T12:09:35;12.10;86.60
38941;DHT22;43236;47.208;7.518;2022-11-20T12:12:29;12.10;86.10
38941;DHT22;43236;47.208;7.518;2022-11-20T12:15:24;12.10;85.10
38941;DHT22;43236;47.208;7.518;2022-11-20T12:18:16;12.00;83.80
38941;DHT22;43236;47.208;7.518;2022-11-20T12:21:17;11.90;82.80
38941;DHT22;43236;47.208;7.518;2022-11-20T12:24:20;11.80;82.80
38941;DHT22;43236;47.208;7.518;2022-11-20T12:27:36;11.70;83.50
38941;DHT22;43236;47.208;7.518;2022-11-20T12:30:26;11.60;82.20
38941;DHT22;43236;47.208;7.518;2022-11-20T12:33:31;11.40;83.00
38941;DHT22;43236;47.208;7.518;2022-11-20T12:36:29;11.30;82.80
38941;DHT22;43236;47.208;7.518;2022-11-20T12:39:32;11.30;83.20
38941;DHT22;43236;47.208;7.518;2022-11-20T12:42:44;11.30;84.60
38941;DHT22;43236;47.208;7.518;2022-11-20T12:46:03;11.30;85.00
38941;DHT22;43236;47.208;7.518;2022-11-20T12:49:00;11.50;84.10
38941;DHT22;43236;47.208;7.518;2022-11-20T12:52:05;11.60;85.00
38941;DHT22;43236;47.208;7.518;2022-11-20T12:55:13;11.70;82.40
38941;DHT22;43236;47.208;7.518;2022-11-20T12:58:09;11.90;83.80
38941;DHT22;43236;47.208;7.518;2022-11-20T13:01:02;12.00;83.20
38941;DHT22;43236;47.208;7.518;2022-11-20T13:03:52;12.00;82.60
38941;DHT22;43236;47.208;7.518;2022-11-20T13:06:44;12.00;80.80
38941;DHT22;43236;47.208;7.518;2022-11-20T13:09:33;12.00;80.20
38941;DHT22;43236;47.208;7.518;2022-11-20T13:12:25;12.00;81.50
38941;DHT22;43236;47.208;7.518;2022-11-20T13:15:26;12.00;80.20
38941;DHT22;43236;47.208;7.518;2022-11-20T13:18:18;11.90;80.20
38941;DHT22;43236;47.208;7.518;2022-11-20T13:21:17;11.90;80.50
38941;DHT22;43236;47.208;7.518;2022-11-20T13:24:06;11.90;80.70
38941;DHT22;43236;47.208;7.518;2022-11-20T13:27:04;11.90;81.20
38941;DHT22;43236;47.208;7.518;2022-11-20T13:30:11;11.90;81.90
38941;DHT22;43236;47.208;7.518;2022-11-20T13:33:06;11.90;81.80
38941;DHT22;43236;47.208;7.518;2022-11-20T13:35:55;12.00;82.00
38941;DHT22;43236;47.208;7.518;2022-11-20T13:38:44;12.00;82.10
38941;DHT22;43236;47.208;7.518;2022-11-20T13:41:38;11.90;82.40
38941;DHT22;43236;47.208;7.518;2022-11-20T13:44:29;11.90;82.60
38941;DHT22;43236;47.208;7.518;2022-11-20T13:47:21;11.80;83.20
38941;DHT22;43236;47.208;7.518;2022-11-20T13:50:08;11.80;83.30
38941;DHT22;43236;47.208;7.518;2022-11-20T13:53:00;11.80;83.30
38941;DHT22;43236;47.208;7.518;2022-11-20T13:55:57;11.80;82.70
38941;DHT22;43236;47.208;7.518;2022-11-20T13:58:53;11.80;83.40
38941;DHT22;43236;47.208;7.518;2022-11-20T14:01:44;11.70;83.30
38941;DHT22;43236;47.208;7.518;2022-11-20T14:04:34;11.70;82.90
38941;DHT22;43236;47.208;7.518;2022-11-20T14:07:25;11.70;83.50
38941;DHT22;43236;47.208;7.518;2022-11-20T14:10:21;11.70;82.50
38941;DHT22;43236;47.208;7.518;2022-11-20T14:13:16;11.60;82.70
38941;DHT22;43236;47.208;7.518;2022-11-20T14:16:05;11.70;83.20
38941;DHT22;43236;47.208;7.518;2022-11-20T14:18:53;11.70;83.30
38941;DHT22;43236;47.208;7.518;2022-11-20T14:21:40;11.70;82.50
38941;DHT22;43236;47.208;7.518;2022-11-20T14:24:27;11.70;82.40
38941;DHT22;43236;47.208;7.518;2022-11-20T14:27:15;11.70;82.20
38941;DHT22;43236;47.208;7.518;2022-11-20T14:30:04;11.60;81.80
38941;DHT22;43236;47.208;7.518;2022-11-20T14:32:54;11.60;81.80
38941;DHT22;43236;47.208;7.518;2022-11-20T14:35:45;11.60;82.80
38941;DHT22;43236;47.208;7.518;2022-11-20T14:38:32;11.60;82.50
38941;DHT22;43236;47.208;7.518;2022-11-20T14:41:21;11.60;81.90
38941;DHT22;43236;47.208;7.518;2022-11-20T14:44:09;11.60;82.00
38941;DHT22;43236;47.208;7.518;2022-11-20T14:46:57;11.60;83.80
38941;DHT22;43236;47.208;7.518;2022-11-20T14:49:46;11.60;83.40
38941;DHT22;43236;47.208;7.518;2022-11-20T14:52:33;11.50;82.40
38941;DHT22;43236;47.208;7.518;2022-11-20T14:55:32;11.50;82.50
38941;DHT22;43236;47.208;7.518;2022-11-20T14:58:22;11.40;82.40
38941;DHT22;43236;47.208;7.518;2022-11-20T15:01:13;11.40;83.10
38941;DHT22;43236;47.208;7.518;2022-11-20T15:04:04;11.30;82.90
38941;DHT22;43236;47.208;7.518;2022-11-20T15:06:55;11.30;83.40
38941;DHT22;43236;47.208;7.518;2022-11-20T15:09:42;11.20;83.20
38941;DHT22;43236;47.208;7.518;2022-11-20T15:12:30;11.40;83.80
38941;DHT22;43236;47.208;7.518;2022-11-20T15:15:21;11.10;83.60
38941;DHT22;43236;47.208;7.518;2022-11-20T15:18:11;11.10;84.50
38941;DHT22;43236;47.208;7.518;2022-11-20T15:21:02;11.10;84.80
38941;DHT22;43236;47.208;7.518;2022-11-20T15:23:51;11.10;84.90
38941;DHT22;43236;47.208;7.518;2022-11-20T15:26:39;11.10;85.10
38941;DHT22;43236;47.208;7.518;2022-11-20T15:29:26;11.10;84.90
38941;DHT22;43236;47.208;7.518;2022-11-20T15:32:14;11.10;85.20
38941;DHT22;43236;47.208;7.518;2022-11-20T15:35:01;11.20;85.40
38941;DHT22;43236;47.208;7.518;2022-11-20T15:37:48;11.20;86.40
38941;DHT22;43236;47.208;7.518;2022-11-20T15:40:37;11.20;85.20
38941;DHT22;43236;47.208;7.518;2022-11-20T15:43:24;11.20;85.40
38941;DHT22;43236;47.208;7.518;2022-11-20T15:46:13;11.20;86.00
38941;DHT22;43236;47.208;7.518;2022-11-20T15:49:01;11.20;86.30
38941;DHT22;43236;47.208;7.518;2022-11-20T15:51:49;11.20;86.80
38941;DHT22;43236;47.208;7.518;2022-11-20T15:54:38;11.20;86.60
38941;DHT22;43236;47.208;7.518;2022-11-20T15:57:26;11.20;86.30
38941;DHT22;43236;47.208;7.518;2022-11-20T16:00:14;11.10;86.40
38941;DHT22;43236;47.208;7.518;2022-11-20T16:03:02;11.10;86.70
38941;DHT22;43236;47.208;7.518;2022-11-20T16:05:49;11.10;86.50
38941;DHT22;43236;47.208;7.518;2022-11-20T16:08:36;11.10;86.90
38941;DHT22;43236;47.208;7.518;2022-11-20T16:11:23;11.20;86.20
38941;DHT22;43236;47.208;7.518;2022-11-20T16:14:11;11.10;86.50
38941;DHT22;43236;47.208;7.518;2022-11-20T16:17:16;11.10;86.90
38941;DHT22;43236;47.208;7.518;2022-11-20T16:20:23;11.10;86.90
38941;DHT22;43236;47.208;7.518;2022-11-20T16:23:10;11.00;86.40
38941;DHT22;43236;47.208;7.518;2022-11-20T16:25:57;11.00;85.90
38941;DHT22;43236;47.208;7.518;2022-11-20T16:28:44;11.00;86.50
38941;DHT22;43236;47.208;7.518;2022-11-20T16:31:33;11.00;86.70
38941;DHT22;43236;47.208;7.518;2022-11-20T16:34:20;10.90;86.40
38941;DHT22;43236;47.208;7.518;2022-11-20T16:37:07;10.90;86.60
38941;DHT22;43236;47.208;7.518;2022-11-20T16:39:54;10.90;86.40
38941;DHT22;43236;47.208;7.518;2022-11-20T16:42:42;10.90;86.80
38941;DHT22;43236;47.208;7.518;2022-11-20T16:45:29;10.90;87.10
38941;DHT22;43236;47.208;7.518;2022-11-20T16:48:17;10.90;87.50
38941;DHT22;43236;47.208;7.518;2022-11-20T16:51:07;10.80;87.40
38941;DHT22;43236;47.208;7.518;2022-11-20T16:53:55;10.80;87.60
38941;DHT22;43236;47.208;7.518;2022-11-20T16:56:42;10.90;88.00
38941;DHT22;43236;47.208;7.518;2022-11-20T16:59:33;10.90;88.20
38941;DHT22;43236;47.208;7.518;2022-11-20T17:02:20;10.90;88.30
38941;DHT22;43236;47.208;7.518;2022-11-20T17:05:09;10.90;88.60
38941;DHT22;43236;47.208;7.518;2022-11-20T17:07:56;10.90;88.30
38941;DHT22;43236;47.208;7.518;2022-11-20T17:10:43;10.80;88.20
38941;DHT22;43236;47.208;7.518;2022-11-20T17:13:30;10.80;88.10
38941;DHT22;43236;47.208;7.518;2022-11-20T17:16:18;10.80;88.40
38941;DHT22;43236;47.208;7.518;2022-11-20T17:19:06;10.80;87.70
38941;DHT22;43236;47.208;7.518;2022-11-20T17:21:55;10.80;88.10
38941;DHT22;43236;47.208;7.518;2022-11-20T17:24:42;10.80;87.50
38941;DHT22;43236;47.208;7.518;2022-11-20T17:27:29;10.80;87.70
38941;DHT22;43236;47.208;7.518;2022-11-20T17:30:16;10.70;87.20
38941;DHT22;43236;47.208;7.518;2022-11-20T17:33:03;10.70;87.70
38941;DHT22;43236;47.208;7.518;2022-11-20T17:35:50;10.70;87.80
38941;DHT22;43236;47.208;7.518;2022-11-20T17:38:38;10.80;88.20
38941;DHT22;43236;47.208;7.518;2022-11-20T17:41:27;10.80;87.90
38941;DHT22;43236;47.208;7.518;2022-11-20T17:44:14;10.80;87.90
38941;DHT22;43236;47.208;7.518;2022-11-20T17:47:01;10.80;87.90
38941;DHT22;43236;47.208;7.518;2022-11-20T17:49:48;10.80;87.50
38941;DHT22;43236;47.208;7.518;2022-11-20T17:52:36;10.80;87.10
38941;DHT22;43236;47.208;7.518;2022-11-20T17:55:24;10.70;86.90
38941;DHT22;43236;47.208;7.518;2022-11-20T17:58:11;10.70;86.80
38941;DHT22;43236;47.208;7.518;2022-11-20T18:01:03;10.70;86.40